sensor_id;sensor_type;location;lat;lon;timestamp;P1;durP1;ratioP1;P2;durP2;ratioP2
65691;SDS011;52411;52.716;6.696;2023-07-20T00:01:17;3.50;;;2.58;;
65691;SDS011;52411;52.716;6.696;2023-07-20T00:03:42;3.30;;;2.42;;
65691;SDS011;52411;52.716;6.696;2023-07-20T00:06:08;3.30;;;2.60;;
65691;SDS011;52411;52.716;6.696;2023-07-20T00:08:34;3.33;;;2.55;;
65691;SDS011;52411;52.716;6.696;2023-07-20T00:10:59;3.78;;;2.60;;
65691;SDS011;52411;52.716;6.696;2023-07-20T00:13:25;3.40;;;2.70;;
65691;SDS011;52411;52.716;6.696;2023-07-20T00:15:51;3.85;;;2.70;;
65691;SDS011;52411;52.716;6.696;2023-07-20T00:18:17;3.33;;;2.67;;
65691;SDS011;52411;52.716;6.696;2023-07-20T00:20:46;4.03;;;2.80;;
65691;SDS011;52411;52.716;6.696;2023-07-20T00:23:12;3.38;;;2.65;;
65691;SDS011;52411;52.716;6.696;2023-07-20T00:25:37;3.60;;;2.97;;
65691;SDS011;52411;52.716;6.696;2023-07-20T00:28:03;3.90;;;3.38;;
65691;SDS011;52411;52.716;6.696;2023-07-20T00:30:29;4.05;;;3.45;;
65691;SDS011;52411;52.716;6.696;2023-07-20T00:32:54;5.28;;;3.15;;
65691;SDS011;52411;52.716;6.696;2023-07-20T00:35:20;4.18;;;3.47;;
65691;SDS011;52411;52.716;6.696;2023-07-20T00:37:46;3.67;;;3.10;;
65691;SDS011;52411;52.716;6.696;2023-07-20T00:40:11;5.53;;;3.55;;
65691;SDS011;52411;52.716;6.696;2023-07-20T00:42:37;4.35;;;3.45;;
65691;SDS011;52411;52.716;6.696;2023-07-20T00:45:03;5.32;;;3.20;;
65691;SDS011;52411;52.716;6.696;2023-07-20T00:47:29;4.00;;;3.25;;
65691;SDS011;52411;52.716;6.696;2023-07-20T00:49:55;4.20;;;3.58;;
65691;SDS011;52411;52.716;6.696;2023-07-20T00:52:21;3.85;;;3.42;;
65691;SDS011;52411;52.716;6.696;2023-07-20T00:54:50;4.28;;;3.80;;
65691;SDS011;52411;52.716;6.696;2023-07-20T00:57:16;4.30;;;3.80;;
65691;SDS011;52411;52.716;6.696;2023-07-20T00:59:44;5.47;;;3.97;;
65691;SDS011;52411;52.716;6.696;2023-07-20T01:02:10;4.30;;;3.72;;
65691;SDS011;52411;52.716;6.696;2023-07-20T01:04:35;5.07;;;3.90;;
65691;SDS011;52411;52.716;6.696;2023-07-20T01:09:39;4.82;;;4.10;;
65691;SDS011;52411;52.716;6.696;2023-07-20T01:12:26;5.25;;;3.85;;
65691;SDS011;52411;52.716;6.696;2023-07-20T01:14:56;5.20;;;4.50;;
65691;SDS011;52411;52.716;6.696;2023-07-20T01:17:22;5.45;;;4.47;;
65691;SDS011;52411;52.716;6.696;2023-07-20T01:19:49;5.50;;;4.15;;
65691;SDS011;52411;52.716;6.696;2023-07-20T01:25:12;5.60;;;4.40;;
65691;SDS011;52411;52.716;6.696;2023-07-20T01:30:45;5.10;;;4.53;;
65691;SDS011;52411;52.716;6.696;2023-07-20T01:33:17;5.45;;;4.50;;
65691;SDS011;52411;52.716;6.696;2023-07-20T01:35:44;5.78;;;4.50;;
65691;SDS011;52411;52.716;6.696;2023-07-20T01:38:18;5.53;;;4.07;;
65691;SDS011;52411;52.716;6.696;2023-07-20T01:40:44;5.38;;;4.35;;
65691;SDS011;52411;52.716;6.696;2023-07-20T01:43:11;5.15;;;4.32;;
65691;SDS011;52411;52.716;6.696;2023-07-20T01:45:38;5.38;;;4.38;;
65691;SDS011;52411;52.716;6.696;2023-07-20T01:48:03;5.55;;;4.53;;
65691;SDS011;52411;52.716;6.696;2023-07-20T01:50:29;5.15;;;4.38;;
65691;SDS011;52411;52.716;6.696;2023-07-20T01:52:54;5.63;;;4.72;;
65691;SDS011;52411;52.716;6.696;2023-07-20T01:55:20;7.80;;;5.00;;
65691;SDS011;52411;52.716;6.696;2023-07-20T01:57:46;7.22;;;4.78;;
65691;SDS011;52411;52.716;6.696;2023-07-20T02:00:11;7.45;;;4.90;;
65691;SDS011;52411;52.716;6.696;2023-07-20T02:02:37;8.77;;;5.10;;
65691;SDS011;52411;52.716;6.696;2023-07-20T02:05:03;6.72;;;5.32;;
65691;SDS011;52411;52.716;6.696;2023-07-20T02:07:29;6.82;;;5.00;;
65691;SDS011;52411;52.716;6.696;2023-07-20T02:09:54;7.28;;;5.28;;
65691;SDS011;52411;52.716;6.696;2023-07-20T02:12:20;6.40;;;5.25;;
65691;SDS011;52411;52.716;6.696;2023-07-20T02:14:45;6.95;;;5.40;;
65691;SDS011;52411;52.716;6.696;2023-07-20T02:17:11;6.53;;;5.65;;
65691;SDS011;52411;52.716;6.696;2023-07-20T02:19:37;8.98;;;5.80;;
65691;SDS011;52411;52.716;6.696;2023-07-20T02:22:03;7.15;;;5.68;;
65691;SDS011;52411;52.716;6.696;2023-07-20T02:24:29;7.15;;;5.60;;
65691;SDS011;52411;52.716;6.696;2023-07-20T02:26:54;9.25;;;6.50;;
65691;SDS011;52411;52.716;6.696;2023-07-20T02:29:20;8.10;;;6.68;;
65691;SDS011;52411;52.716;6.696;2023-07-20T02:31:46;8.57;;;6.07;;
65691;SDS011;52411;52.716;6.696;2023-07-20T02:34:11;8.48;;;6.30;;
65691;SDS011;52411;52.716;6.696;2023-07-20T02:36:37;7.63;;;6.40;;
65691;SDS011;52411;52.716;6.696;2023-07-20T02:39:02;9.20;;;6.40;;
65691;SDS011;52411;52.716;6.696;2023-07-20T02:41:29;8.90;;;6.70;;
65691;SDS011;52411;52.716;6.696;2023-07-20T02:43:55;9.85;;;7.40;;
65691;SDS011;52411;52.716;6.696;2023-07-20T02:46:21;9.02;;;7.10;;
65691;SDS011;52411;52.716;6.696;2023-07-20T02:48:47;8.68;;;7.03;;
65691;SDS011;52411;52.716;6.696;2023-07-20T02:51:13;11.68;;;7.10;;
65691;SDS011;52411;52.716;6.696;2023-07-20T02:53:38;8.27;;;6.80;;
65691;SDS011;52411;52.716;6.696;2023-07-20T02:56:04;9.30;;;6.93;;
65691;SDS011;52411;52.716;6.696;2023-07-20T02:58:30;9.52;;;7.05;;
65691;SDS011;52411;52.716;6.696;2023-07-20T03:00:55;9.98;;;7.75;;
65691;SDS011;52411;52.716;6.696;2023-07-20T03:03:21;9.13;;;7.38;;
65691;SDS011;52411;52.716;6.696;2023-07-20T03:05:47;9.68;;;7.20;;
65691;SDS011;52411;52.716;6.696;2023-07-20T03:08:19;7.90;;;6.60;;
65691;SDS011;52411;52.716;6.696;2023-07-20T03:10:44;8.82;;;7.35;;
65691;SDS011;52411;52.716;6.696;2023-07-20T03:13:10;13.20;;;6.97;;
65691;SDS011;52411;52.716;6.696;2023-07-20T03:15:36;11.77;;;7.75;;
65691;SDS011;52411;52.716;6.696;2023-07-20T03:18:01;8.80;;;6.72;;
65691;SDS011;52411;52.716;6.696;2023-07-20T03:20:29;10.77;;;7.18;;
65691;SDS011;52411;52.716;6.696;2023-07-20T03:22:54;8.73;;;6.78;;
65691;SDS011;52411;52.716;6.696;2023-07-20T03:25:20;10.38;;;6.93;;
65691;SDS011;52411;52.716;6.696;2023-07-20T03:27:46;9.68;;;6.55;;
65691;SDS011;52411;52.716;6.696;2023-07-20T03:30:11;10.90;;;7.18;;
65691;SDS011;52411;52.716;6.696;2023-07-20T03:32:37;8.48;;;6.65;;
65691;SDS011;52411;52.716;6.696;2023-07-20T03:35:03;8.80;;;6.25;;
65691;SDS011;52411;52.716;6.696;2023-07-20T03:37:29;9.60;;;6.35;;
65691;SDS011;52411;52.716;6.696;2023-07-20T03:39:55;8.50;;;6.50;;
65691;SDS011;52411;52.716;6.696;2023-07-20T03:42:20;8.88;;;6.20;;
65691;SDS011;52411;52.716;6.696;2023-07-20T03:44:46;8.95;;;6.30;;
65691;SDS011;52411;52.716;6.696;2023-07-20T03:47:12;9.05;;;6.35;;
65691;SDS011;52411;52.716;6.696;2023-07-20T03:49:38;9.65;;;7.07;;
65691;SDS011;52411;52.716;6.696;2023-07-20T03:52:03;9.73;;;6.25;;
65691;SDS011;52411;52.716;6.696;2023-07-20T03:54:29;8.68;;;6.32;;
65691;SDS011;52411;52.716;6.696;2023-07-20T03:56:55;8.65;;;6.63;;
65691;SDS011;52411;52.716;6.696;2023-07-20T03:59:20;8.00;;;6.20;;
65691;SDS011;52411;52.716;6.696;2023-07-20T04:01:46;9.10;;;6.18;;
65691;SDS011;52411;52.716;6.696;2023-07-20T04:04:13;8.60;;;6.65;;
65691;SDS011;52411;52.716;6.696;2023-07-20T04:06:40;8.70;;;6.38;;
65691;SDS011;52411;52.716;6.696;2023-07-20T04:09:09;8.32;;;6.53;;
65691;SDS011;52411;52.716;6.696;2023-07-20T04:11:36;7.32;;;5.90;;
65691;SDS011;52411;52.716;6.696;2023-07-20T04:14:01;9.02;;;6.88;;
65691;SDS011;52411;52.716;6.696;2023-07-20T04:16:27;8.18;;;6.43;;
65691;SDS011;52411;52.716;6.696;2023-07-20T04:18:54;11.63;;;7.82;;
65691;SDS011;52411;52.716;6.696;2023-07-20T04:21:21;8.65;;;6.57;;
65691;SDS011;52411;52.716;6.696;2023-07-20T04:23:47;10.98;;;6.80;;
65691;SDS011;52411;52.716;6.696;2023-07-20T04:26:13;9.77;;;6.63;;
65691;SDS011;52411;52.716;6.696;2023-07-20T04:28:40;9.30;;;7.13;;
65691;SDS011;52411;52.716;6.696;2023-07-20T04:31:13;9.77;;;6.20;;
65691;SDS011;52411;52.716;6.696;2023-07-20T04:33:39;9.35;;;6.68;;
65691;SDS011;52411;52.716;6.696;2023-07-20T04:36:05;8.25;;;6.38;;
65691;SDS011;52411;52.716;6.696;2023-07-20T04:38:31;9.45;;;7.00;;
65691;SDS011;52411;52.716;6.696;2023-07-20T04:40:57;10.05;;;7.13;;
65691;SDS011;52411;52.716;6.696;2023-07-20T04:43:22;9.75;;;6.97;;
65691;SDS011;52411;52.716;6.696;2023-07-20T04:45:48;9.38;;;6.68;;
65691;SDS011;52411;52.716;6.696;2023-07-20T04:48:16;9.88;;;6.60;;
65691;SDS011;52411;52.716;6.696;2023-07-20T04:50:42;7.80;;;6.00;;
65691;SDS011;52411;52.716;6.696;2023-07-20T04:53:10;10.18;;;6.45;;
65691;SDS011;52411;52.716;6.696;2023-07-20T04:55:39;9.63;;;6.90;;
65691;SDS011;52411;52.716;6.696;2023-07-20T04:58:05;9.68;;;6.85;;
65691;SDS011;52411;52.716;6.696;2023-07-20T05:00:34;9.75;;;6.15;;
65691;SDS011;52411;52.716;6.696;2023-07-20T05:05:30;7.78;;;6.10;;
65691;SDS011;52411;52.716;6.696;2023-07-20T05:07:56;9.52;;;6.40;;
65691;SDS011;52411;52.716;6.696;2023-07-20T05:10:22;9.85;;;6.10;;
65691;SDS011;52411;52.716;6.696;2023-07-20T05:12:48;7.70;;;6.03;;
65691;SDS011;52411;52.716;6.696;2023-07-20T05:15:14;7.90;;;6.05;;
65691;SDS011;52411;52.716;6.696;2023-07-20T05:17:40;8.07;;;6.43;;
65691;SDS011;52411;52.716;6.696;2023-07-20T05:20:06;9.60;;;6.97;;
65691;SDS011;52411;52.716;6.696;2023-07-20T05:22:35;9.00;;;6.30;;
65691;SDS011;52411;52.716;6.696;2023-07-20T05:25:01;7.53;;;6.43;;
65691;SDS011;52411;52.716;6.696;2023-07-20T05:27:26;8.38;;;6.10;;
65691;SDS011;52411;52.716;6.696;2023-07-20T05:29:52;8.18;;;5.80;;
65691;SDS011;52411;52.716;6.696;2023-07-20T05:32:18;7.47;;;4.85;;
65691;SDS011;52411;52.716;6.696;2023-07-20T05:34:43;7.47;;;5.68;;
65691;SDS011;52411;52.716;6.696;2023-07-20T05:37:09;8.90;;;5.30;;
65691;SDS011;52411;52.716;6.696;2023-07-20T05:39:34;7.68;;;5.20;;
65691;SDS011;52411;52.716;6.696;2023-07-20T05:42:00;7.85;;;4.97;;
65691;SDS011;52411;52.716;6.696;2023-07-20T05:44:26;7.47;;;4.93;;
65691;SDS011;52411;52.716;6.696;2023-07-20T05:46:51;7.60;;;5.00;;
65691;SDS011;52411;52.716;6.696;2023-07-20T05:49:17;9.05;;;4.90;;
65691;SDS011;52411;52.716;6.696;2023-07-20T05:51:43;7.85;;;4.63;;
65691;SDS011;52411;52.716;6.696;2023-07-20T05:54:08;8.30;;;4.72;;
65691;SDS011;52411;52.716;6.696;2023-07-20T05:56:34;7.43;;;4.38;;
65691;SDS011;52411;52.716;6.696;2023-07-20T05:58:59;7.65;;;5.05;;
65691;SDS011;52411;52.716;6.696;2023-07-20T06:01:25;7.50;;;5.03;;
65691;SDS011;52411;52.716;6.696;2023-07-20T06:03:53;6.85;;;4.70;;
65691;SDS011;52411;52.716;6.696;2023-07-20T06:06:18;8.48;;;5.00;;
65691;SDS011;52411;52.716;6.696;2023-07-20T06:08:44;5.80;;;4.10;;
65691;SDS011;52411;52.716;6.696;2023-07-20T06:11:10;5.68;;;3.95;;
65691;SDS011;52411;52.716;6.696;2023-07-20T06:13:36;7.15;;;4.32;;
65691;SDS011;52411;52.716;6.696;2023-07-20T06:16:02;6.20;;;4.13;;
65691;SDS011;52411;52.716;6.696;2023-07-20T06:18:28;5.80;;;4.53;;
65691;SDS011;52411;52.716;6.696;2023-07-20T06:20:55;7.97;;;3.70;;
65691;SDS011;52411;52.716;6.696;2023-07-20T06:23:21;5.32;;;4.40;;
65691;SDS011;52411;52.716;6.696;2023-07-20T06:25:47;7.90;;;4.03;;
65691;SDS011;52411;52.716;6.696;2023-07-20T06:28:13;5.88;;;4.30;;
65691;SDS011;52411;52.716;6.696;2023-07-20T06:30:39;6.22;;;3.47;;
65691;SDS011;52411;52.716;6.696;2023-07-20T06:33:05;4.57;;;3.38;;
65691;SDS011;52411;52.716;6.696;2023-07-20T06:35:31;4.47;;;3.17;;
65691;SDS011;52411;52.716;6.696;2023-07-20T06:37:57;4.18;;;3.20;;
65691;SDS011;52411;52.716;6.696;2023-07-20T06:40:24;4.47;;;3.20;;
65691;SDS011;52411;52.716;6.696;2023-07-20T06:42:49;5.85;;;3.60;;
65691;SDS011;52411;52.716;6.696;2023-07-20T06:45:15;5.75;;;3.13;;
65691;SDS011;52411;52.716;6.696;2023-07-20T06:47:41;5.15;;;3.33;;
65691;SDS011;52411;52.716;6.696;2023-07-20T06:50:07;6.80;;;3.05;;
65691;SDS011;52411;52.716;6.696;2023-07-20T06:52:33;4.72;;;3.20;;
65691;SDS011;52411;52.716;6.696;2023-07-20T06:54:59;4.88;;;3.30;;
65691;SDS011;52411;52.716;6.696;2023-07-20T06:57:25;6.63;;;3.15;;
65691;SDS011;52411;52.716;6.696;2023-07-20T06:59:51;6.70;;;3.35;;
65691;SDS011;52411;52.716;6.696;2023-07-20T07:02:16;5.65;;;3.00;;
65691;SDS011;52411;52.716;6.696;2023-07-20T07:04:42;4.88;;;3.25;;
65691;SDS011;52411;52.716;6.696;2023-07-20T07:07:08;4.50;;;2.85;;
65691;SDS011;52411;52.716;6.696;2023-07-20T07:09:34;4.22;;;2.20;;
65691;SDS011;52411;52.716;6.696;2023-07-20T07:12:00;3.63;;;2.45;;
65691;SDS011;52411;52.716;6.696;2023-07-20T07:14:26;5.47;;;2.50;;
65691;SDS011;52411;52.716;6.696;2023-07-20T07:16:51;4.43;;;2.22;;
65691;SDS011;52411;52.716;6.696;2023-07-20T07:19:17;2.92;;;1.80;;
65691;SDS011;52411;52.716;6.696;2023-07-20T07:21:43;3.28;;;2.30;;
65691;SDS011;52411;52.716;6.696;2023-07-20T07:24:08;3.65;;;1.83;;
65691;SDS011;52411;52.716;6.696;2023-07-20T07:26:34;3.65;;;2.20;;
65691;SDS011;52411;52.716;6.696;2023-07-20T07:29:01;4.25;;;2.08;;
65691;SDS011;52411;52.716;6.696;2023-07-20T07:31:28;2.42;;;1.85;;
65691;SDS011;52411;52.716;6.696;2023-07-20T07:33:54;6.07;;;2.40;;
65691;SDS011;52411;52.716;6.696;2023-07-20T07:36:20;3.72;;;2.05;;
65691;SDS011;52411;52.716;6.696;2023-07-20T07:38:45;6.88;;;2.00;;
65691;SDS011;52411;52.716;6.696;2023-07-20T07:41:11;3.33;;;1.95;;
65691;SDS011;52411;52.716;6.696;2023-07-20T07:43:37;3.50;;;1.73;;
65691;SDS011;52411;52.716;6.696;2023-07-20T07:46:03;3.50;;;1.95;;
65691;SDS011;52411;52.716;6.696;2023-07-20T07:48:29;3.85;;;1.98;;
65691;SDS011;52411;52.716;6.696;2023-07-20T07:50:55;3.00;;;2.00;;
65691;SDS011;52411;52.716;6.696;2023-07-20T07:53:20;2.63;;;1.73;;
65691;SDS011;52411;52.716;6.696;2023-07-20T07:55:49;3.42;;;2.00;;
65691;SDS011;52411;52.716;6.696;2023-07-20T07:58:15;1.92;;;1.70;;
65691;SDS011;52411;52.716;6.696;2023-07-20T08:00:41;2.55;;;2.00;;
65691;SDS011;52411;52.716;6.696;2023-07-20T08:03:07;1.98;;;1.58;;
65691;SDS011;52411;52.716;6.696;2023-07-20T08:05:33;7.60;;;1.77;;
65691;SDS011;52411;52.716;6.696;2023-07-20T08:08:00;2.00;;;1.63;;
65691;SDS011;52411;52.716;6.696;2023-07-20T08:10:26;4.18;;;1.80;;
65691;SDS011;52411;52.716;6.696;2023-07-20T08:12:51;2.72;;;1.80;;
65691;SDS011;52411;52.716;6.696;2023-07-20T08:15:17;3.17;;;1.77;;
65691;SDS011;52411;52.716;6.696;2023-07-20T08:17:43;2.83;;;1.80;;
65691;SDS011;52411;52.716;6.696;2023-07-20T08:20:09;4.82;;;2.00;;
65691;SDS011;52411;52.716;6.696;2023-07-20T08:22:38;4.32;;;1.88;;
65691;SDS011;52411;52.716;6.696;2023-07-20T08:25:07;3.53;;;1.50;;
65691;SDS011;52411;52.716;6.696;2023-07-20T08:27:33;2.30;;;1.70;;
65691;SDS011;52411;52.716;6.696;2023-07-20T08:29:59;3.22;;;1.98;;
65691;SDS011;52411;52.716;6.696;2023-07-20T08:32:25;3.28;;;1.70;;
65691;SDS011;52411;52.716;6.696;2023-07-20T08:34:51;4.88;;;1.80;;
65691;SDS011;52411;52.716;6.696;2023-07-20T08:37:16;6.05;;;1.70;;
65691;SDS011;52411;52.716;6.696;2023-07-20T08:39:42;2.92;;;1.80;;
65691;SDS011;52411;52.716;6.696;2023-07-20T08:42:07;1.80;;;1.55;;
65691;SDS011;52411;52.716;6.696;2023-07-20T08:44:36;4.38;;;1.70;;
65691;SDS011;52411;52.716;6.696;2023-07-20T08:47:03;2.47;;;1.80;;
65691;SDS011;52411;52.716;6.696;2023-07-20T08:49:33;2.15;;;1.60;;
65691;SDS011;52411;52.716;6.696;2023-07-20T08:52:00;1.75;;;1.40;;
65691;SDS011;52411;52.716;6.696;2023-07-20T08:54:28;8.23;;;1.58;;
65691;SDS011;52411;52.716;6.696;2023-07-20T08:56:57;2.90;;;1.77;;
65691;SDS011;52411;52.716;6.696;2023-07-20T08:59:26;3.53;;;1.63;;
65691;SDS011;52411;52.716;6.696;2023-07-20T09:01:53;4.18;;;2.00;;
65691;SDS011;52411;52.716;6.696;2023-07-20T09:04:21;3.95;;;1.85;;
65691;SDS011;52411;52.716;6.696;2023-07-20T09:06:47;3.95;;;1.80;;
65691;SDS011;52411;52.716;6.696;2023-07-20T09:09:14;3.97;;;1.98;;
65691;SDS011;52411;52.716;6.696;2023-07-20T09:11:40;3.17;;;1.80;;
65691;SDS011;52411;52.716;6.696;2023-07-20T09:14:06;2.40;;;1.80;;
65691;SDS011;52411;52.716;6.696;2023-07-20T09:19:19;2.88;;;1.67;;
65691;SDS011;52411;52.716;6.696;2023-07-20T09:21:49;3.78;;;1.80;;
65691;SDS011;52411;52.716;6.696;2023-07-20T09:24:19;3.03;;;1.60;;
65691;SDS011;52411;52.716;6.696;2023-07-20T09:26:46;3.80;;;1.83;;
65691;SDS011;52411;52.716;6.696;2023-07-20T09:29:19;3.30;;;1.90;;
65691;SDS011;52411;52.716;6.696;2023-07-20T09:32:00;2.50;;;1.63;;
65691;SDS011;52411;52.716;6.696;2023-07-20T09:34:30;3.92;;;1.85;;
65691;SDS011;52411;52.716;6.696;2023-07-20T09:36:58;3.67;;;1.83;;
65691;SDS011;52411;52.716;6.696;2023-07-20T09:39:25;3.33;;;2.08;;
65691;SDS011;52411;52.716;6.696;2023-07-20T09:41:51;2.13;;;1.52;;
65691;SDS011;52411;52.716;6.696;2023-07-20T09:44:17;2.92;;;1.65;;
65691;SDS011;52411;52.716;6.696;2023-07-20T09:46:46;2.17;;;1.50;;
65691;SDS011;52411;52.716;6.696;2023-07-20T09:49:13;3.53;;;1.95;;
65691;SDS011;52411;52.716;6.696;2023-07-20T09:51:39;1.92;;;1.40;;
65691;SDS011;52411;52.716;6.696;2023-07-20T09:54:07;1.98;;;1.55;;
65691;SDS011;52411;52.716;6.696;2023-07-20T09:56:33;3.30;;;1.80;;
65691;SDS011;52411;52.716;6.696;2023-07-20T09:59:00;3.15;;;1.88;;
65691;SDS011;52411;52.716;6.696;2023-07-20T10:01:26;3.90;;;1.95;;
65691;SDS011;52411;52.716;6.696;2023-07-20T10:03:54;5.43;;;1.88;;
65691;SDS011;52411;52.716;6.696;2023-07-20T10:06:23;3.38;;;2.05;;
65691;SDS011;52411;52.716;6.696;2023-07-20T10:08:52;4.85;;;1.80;;
65691;SDS011;52411;52.716;6.696;2023-07-20T10:11:18;3.55;;;1.83;;
65691;SDS011;52411;52.716;6.696;2023-07-20T10:13:46;3.50;;;1.83;;
65691;SDS011;52411;52.716;6.696;2023-07-20T10:16:36;2.00;;;1.80;;
65691;SDS011;52411;52.716;6.696;2023-07-20T10:22:12;3.50;;;2.00;;
65691;SDS011;52411;52.716;6.696;2023-07-20T10:24:44;3.35;;;2.15;;
65691;SDS011;52411;52.716;6.696;2023-07-20T10:27:10;3.30;;;2.40;;
65691;SDS011;52411;52.716;6.696;2023-07-20T10:29:36;3.50;;;2.40;;
65691;SDS011;52411;52.716;6.696;2023-07-20T10:32:03;4.68;;;2.80;;
65691;SDS011;52411;52.716;6.696;2023-07-20T10:34:29;5.03;;;3.00;;
65691;SDS011;52411;52.716;6.696;2023-07-20T10:36:55;4.18;;;2.95;;
65691;SDS011;52411;52.716;6.696;2023-07-20T10:39:27;5.00;;;3.22;;
65691;SDS011;52411;52.716;6.696;2023-07-20T10:42:08;4.18;;;3.42;;
65691;SDS011;52411;52.716;6.696;2023-07-20T10:44:38;6.78;;;3.25;;
65691;SDS011;52411;52.716;6.696;2023-07-20T10:47:09;4.28;;;3.00;;
65691;SDS011;52411;52.716;6.696;2023-07-20T10:49:38;4.93;;;2.53;;
65691;SDS011;52411;52.716;6.696;2023-07-20T10:52:25;3.45;;;2.50;;
65691;SDS011;52411;52.716;6.696;2023-07-20T10:54:51;3.17;;;2.20;;
65691;SDS011;52411;52.716;6.696;2023-07-20T10:57:23;3.22;;;2.20;;
65691;SDS011;52411;52.716;6.696;2023-07-20T10:59:53;3.17;;;2.20;;
65691;SDS011;52411;52.716;6.696;2023-07-20T11:02:43;2.40;;;1.75;;
65691;SDS011;52411;52.716;6.696;2023-07-20T11:05:34;3.03;;;1.70;;
65691;SDS011;52411;52.716;6.696;2023-07-20T11:08:06;1.88;;;1.67;;
65691;SDS011;52411;52.716;6.696;2023-07-20T11:10:35;1.98;;;1.60;;
65691;SDS011;52411;52.716;6.696;2023-07-20T11:13:17;2.45;;;1.90;;
65691;SDS011;52411;52.716;6.696;2023-07-20T11:18:26;2.20;;;1.75;;
65691;SDS011;52411;52.716;6.696;2023-07-20T11:20:52;3.13;;;1.45;;
65691;SDS011;52411;52.716;6.696;2023-07-20T11:23:21;2.90;;;1.52;;
65691;SDS011;52411;52.716;6.696;2023-07-20T11:25:47;3.20;;;1.80;;
65691;SDS011;52411;52.716;6.696;2023-07-20T11:28:13;3.25;;;2.10;;
65691;SDS011;52411;52.716;6.696;2023-07-20T11:30:39;2.50;;;2.30;;
65691;SDS011;52411;52.716;6.696;2023-07-20T11:33:05;3.72;;;2.33;;
65691;SDS011;52411;52.716;6.696;2023-07-20T11:35:43;5.18;;;2.38;;
65691;SDS011;52411;52.716;6.696;2023-07-20T11:38:12;4.13;;;2.70;;
65691;SDS011;52411;52.716;6.696;2023-07-20T11:40:42;4.60;;;3.03;;
65691;SDS011;52411;52.716;6.696;2023-07-20T11:43:09;5.43;;;2.92;;
65691;SDS011;52411;52.716;6.696;2023-07-20T11:45:37;4.22;;;2.75;;
65691;SDS011;52411;52.716;6.696;2023-07-20T11:48:03;2.95;;;2.25;;
65691;SDS011;52411;52.716;6.696;2023-07-20T11:50:28;4.18;;;2.00;;
65691;SDS011;52411;52.716;6.696;2023-07-20T11:52:54;3.60;;;2.30;;
65691;SDS011;52411;52.716;6.696;2023-07-20T11:55:21;4.85;;;2.30;;
65691;SDS011;52411;52.716;6.696;2023-07-20T11:58:03;3.10;;;2.20;;
65691;SDS011;52411;52.716;6.696;2023-07-20T12:00:32;2.60;;;1.92;;
65691;SDS011;52411;52.716;6.696;2023-07-20T12:02:59;2.83;;;2.08;;
65691;SDS011;52411;52.716;6.696;2023-07-20T12:05:25;1.65;;;1.50;;
65691;SDS011;52411;52.716;6.696;2023-07-20T12:07:51;2.08;;;1.70;;
65691;SDS011;52411;52.716;6.696;2023-07-20T12:10:23;3.03;;;1.65;;
65691;SDS011;52411;52.716;6.696;2023-07-20T12:12:51;2.03;;;1.45;;
65691;SDS011;52411;52.716;6.696;2023-07-20T12:15:24;2.40;;;1.60;;
65691;SDS011;52411;52.716;6.696;2023-07-20T12:17:57;1.65;;;1.55;;
65691;SDS011;52411;52.716;6.696;2023-07-20T12:20:28;2.22;;;1.63;;
65691;SDS011;52411;52.716;6.696;2023-07-20T12:22:56;1.50;;;1.40;;
65691;SDS011;52411;52.716;6.696;2023-07-20T12:28:01;3.25;;;1.63;;
65691;SDS011;52411;52.716;6.696;2023-07-20T12:30:29;2.10;;;1.75;;
65691;SDS011;52411;52.716;6.696;2023-07-20T12:32:55;2.47;;;1.50;;
65691;SDS011;52411;52.716;6.696;2023-07-20T12:35:20;2.45;;;1.95;;
65691;SDS011;52411;52.716;6.696;2023-07-20T12:37:46;4.38;;;1.80;;
65691;SDS011;52411;52.716;6.696;2023-07-20T12:40:14;9.00;;;1.85;;
65691;SDS011;52411;52.716;6.696;2023-07-20T12:42:39;2.83;;;1.80;;
65691;SDS011;52411;52.716;6.696;2023-07-20T12:45:05;3.20;;;1.90;;
65691;SDS011;52411;52.716;6.696;2023-07-20T12:47:31;1.90;;;1.75;;
65691;SDS011;52411;52.716;6.696;2023-07-20T12:49:57;4.00;;;2.00;;
65691;SDS011;52411;52.716;6.696;2023-07-20T12:52:22;3.83;;;1.77;;
65691;SDS011;52411;52.716;6.696;2023-07-20T12:54:48;2.42;;;1.95;;
65691;SDS011;52411;52.716;6.696;2023-07-20T12:57:14;3.97;;;2.25;;
65691;SDS011;52411;52.716;6.696;2023-07-20T12:59:39;3.10;;;2.10;;
65691;SDS011;52411;52.716;6.696;2023-07-20T13:02:05;2.33;;;1.75;;
65691;SDS011;52411;52.716;6.696;2023-07-20T13:04:31;2.08;;;1.70;;
65691;SDS011;52411;52.716;6.696;2023-07-20T13:06:57;4.68;;;2.30;;
65691;SDS011;52411;52.716;6.696;2023-07-20T13:09:23;2.40;;;1.88;;
65691;SDS011;52411;52.716;6.696;2023-07-20T13:11:50;2.92;;;2.00;;
65691;SDS011;52411;52.716;6.696;2023-07-20T13:14:16;2.45;;;1.88;;
65691;SDS011;52411;52.716;6.696;2023-07-20T13:16:42;2.72;;;1.70;;
65691;SDS011;52411;52.716;6.696;2023-07-20T13:19:07;4.22;;;2.40;;
65691;SDS011;52411;52.716;6.696;2023-07-20T13:21:33;3.17;;;1.92;;
65691;SDS011;52411;52.716;6.696;2023-07-20T13:23:59;3.60;;;2.20;;
65691;SDS011;52411;52.716;6.696;2023-07-20T13:26:24;3.03;;;2.22;;
65691;SDS011;52411;52.716;6.696;2023-07-20T13:28:50;3.55;;;2.30;;
65691;SDS011;52411;52.716;6.696;2023-07-20T13:31:16;4.65;;;2.40;;
65691;SDS011;52411;52.716;6.696;2023-07-20T13:33:42;3.22;;;2.22;;
65691;SDS011;52411;52.716;6.696;2023-07-20T13:36:08;2.13;;;1.55;;
65691;SDS011;52411;52.716;6.696;2023-07-20T13:38:33;3.47;;;1.60;;
65691;SDS011;52411;52.716;6.696;2023-07-20T13:40:59;3.42;;;1.50;;
65691;SDS011;52411;52.716;6.696;2023-07-20T13:43:24;3.28;;;1.40;;
65691;SDS011;52411;52.716;6.696;2023-07-20T13:45:50;2.85;;;1.40;;
65691;SDS011;52411;52.716;6.696;2023-07-20T13:48:16;2.03;;;1.10;;
65691;SDS011;52411;52.716;6.696;2023-07-20T13:50:44;1.80;;;1.10;;
65691;SDS011;52411;52.716;6.696;2023-07-20T13:53:10;2.75;;;1.20;;
65691;SDS011;52411;52.716;6.696;2023-07-20T13:55:36;2.72;;;1.20;;
65691;SDS011;52411;52.716;6.696;2023-07-20T13:58:03;1.70;;;1.15;;
65691;SDS011;52411;52.716;6.696;2023-07-20T14:00:29;1.08;;;1.00;;
65691;SDS011;52411;52.716;6.696;2023-07-20T14:02:58;2.45;;;1.20;;
65691;SDS011;52411;52.716;6.696;2023-07-20T14:05:24;1.10;;;1.00;;
65691;SDS011;52411;52.716;6.696;2023-07-20T14:07:50;2.05;;;1.20;;
65691;SDS011;52411;52.716;6.696;2023-07-20T14:10:16;2.03;;;1.30;;
65691;SDS011;52411;52.716;6.696;2023-07-20T14:12:42;1.48;;;1.10;;
65691;SDS011;52411;52.716;6.696;2023-07-20T14:15:09;1.40;;;1.30;;
65691;SDS011;52411;52.716;6.696;2023-07-20T14:17:35;2.55;;;1.10;;
65691;SDS011;52411;52.716;6.696;2023-07-20T14:20:01;1.88;;;1.20;;
65691;SDS011;52411;52.716;6.696;2023-07-20T14:22:31;1.23;;;1.00;;
65691;SDS011;52411;52.716;6.696;2023-07-20T14:24:57;2.53;;;1.30;;
65691;SDS011;52411;52.716;6.696;2023-07-20T14:27:24;2.08;;;1.20;;
65691;SDS011;52411;52.716;6.696;2023-07-20T14:29:49;1.48;;;1.02;;
65691;SDS011;52411;52.716;6.696;2023-07-20T14:32:15;2.17;;;1.20;;
65691;SDS011;52411;52.716;6.696;2023-07-20T14:34:40;1.60;;;1.17;;
65691;SDS011;52411;52.716;6.696;2023-07-20T14:37:06;2.42;;;1.30;;
65691;SDS011;52411;52.716;6.696;2023-07-20T14:39:32;1.73;;;1.00;;
65691;SDS011;52411;52.716;6.696;2023-07-20T14:41:57;2.65;;;1.20;;
65691;SDS011;52411;52.716;6.696;2023-07-20T14:44:23;1.40;;;1.30;;
65691;SDS011;52411;52.716;6.696;2023-07-20T14:46:49;1.52;;;1.23;;
65691;SDS011;52411;52.716;6.696;2023-07-20T14:49:15;2.05;;;1.50;;
65691;SDS011;52411;52.716;6.696;2023-07-20T14:51:42;1.48;;;1.10;;
65691;SDS011;52411;52.716;6.696;2023-07-20T14:54:11;1.30;;;1.20;;
65691;SDS011;52411;52.716;6.696;2023-07-20T14:56:38;1.63;;;1.10;;
65691;SDS011;52411;52.716;6.696;2023-07-20T14:59:04;1.52;;;1.17;;
65691;SDS011;52411;52.716;6.696;2023-07-20T15:01:31;2.20;;;1.33;;
65691;SDS011;52411;52.716;6.696;2023-07-20T15:03:57;2.33;;;1.42;;
65691;SDS011;52411;52.716;6.696;2023-07-20T15:06:25;7.55;;;1.38;;
65691;SDS011;52411;52.716;6.696;2023-07-20T15:08:51;1.30;;;1.20;;